sensor_id;sensor_type;location;lat;lon;timestamp;temperature;humidity
23259;DHT22;11798;51.528;7.240;2023-04-06T00:00:52;3.10;99.90
23259;DHT22;11798;51.528;7.240;2023-04-06T00:03:17;3.00;99.90
23259;DHT22;11798;51.528;7.240;2023-04-06T00:05:43;3.00;99.90
23259;DHT22;11798;51.528;7.240;2023-04-06T00:08:09;3.00;99.90
23259;DHT22;11798;51.528;7.240;2023-04-06T00:10:34;2.90;99.90
23259;DHT22;11798;51.528;7.240;2023-04-06T00:13:00;2.90;99.90
23259;DHT22;11798;51.528;7.240;2023-04-06T00:15:26;2.80;99.90
23259;DHT22;11798;51.528;7.240;2023-04-06T00:17:51;2.80;99.90
23259;DHT22;11798;51.528;7.240;2023-04-06T00:20:17;2.70;99.90
23259;DHT22;11798;51.528;7.240;2023-04-06T00:22:43;2.70;99.90
23259;DHT22;11798;51.528;7.240;2023-04-06T00:25:09;2.70;99.90
23259;DHT22;11798;51.528;7.240;2023-04-06T00:27:38;2.60;99.90
23259;DHT22;11798;51.528;7.240;2023-04-06T00:30:04;2.70;99.90
23259;DHT22;11798;51.528;7.240;2023-04-06T00:32:30;2.70;99.90
23259;DHT22;11798;51.528;7.240;2023-04-06T00:34:56;2.70;99.90
23259;DHT22;11798;51.528;7.240;2023-04-06T00:37:24;2.70;99.90
23259;DHT22;11798;51.528;7.240;2023-04-06T00:39:50;2.70;99.90
23259;DHT22;11798;51.528;7.240;2023-04-06T00:42:17;2.50;99.90
23259;DHT22;11798;51.528;7.240;2023-04-06T00:44:43;2.50;99.90
23259;DHT22;11798;51.528;7.240;2023-04-06T00:47:09;2.50;99.90
23259;DHT22;11798;51.528;7.240;2023-04-06T00:49:35;2.50;99.90
23259;DHT22;11798;51.528;7.240;2023-04-06T00:52:00;2.50;99.90
23259;DHT22;11798;51.528;7.240;2023-04-06T00:54:26;2.50;99.90
23259;DHT22;11798;51.528;7.240;2023-04-06T00:56:52;2.40;99.90
23259;DHT22;11798;51.528;7.240;2023-04-06T00:59:18;2.40;99.90
23259;DHT22;11798;51.528;7.240;2023-04-06T01:01:43;2.30;99.90
23259;DHT22;11798;51.528;7.240;2023-04-06T01:04:09;2.20;99.90
23259;DHT22;11798;51.528;7.240;2023-04-06T01:06:34;2.20;99.90
23259;DHT22;11798;51.528;7.240;2023-04-06T01:09:00;2.20;99.90
23259;DHT22;11798;51.528;7.240;2023-04-06T01:11:25;2.30;99.90
23259;DHT22;11798;51.528;7.240;2023-04-06T01:13:51;2.30;99.90
23259;DHT22;11798;51.528;7.240;2023-04-06T01:16:17;2.40;99.90
23259;DHT22;11798;51.528;7.240;2023-04-06T01:18:42;2.30;99.90
23259;DHT22;11798;51.528;7.240;2023-04-06T01:21:08;2.30;99.90
23259;DHT22;11798;51.528;7.240;2023-04-06T01:23:38;2.40;99.90
23259;DHT22;11798;51.528;7.240;2023-04-06T01:26:04;2.40;99.90
23259;DHT22;11798;51.528;7.240;2023-04-06T01:28:30;2.50;99.90
23259;DHT22;11798;51.528;7.240;2023-04-06T01:30:55;2.50;99.90
23259;DHT22;11798;51.528;7.240;2023-04-06T01:33:21;2.60;99.90
23259;DHT22;11798;51.528;7.240;2023-04-06T01:35:46;2.60;99.90
23259;DHT22;11798;51.528;7.240;2023-04-06T01:38:12;2.60;99.90
23259;DHT22;11798;51.528;7.240;2023-04-06T01:40:37;2.70;99.90
23259;DHT22;11798;51.528;7.240;2023-04-06T01:43:03;2.70;99.90
23259;DHT22;11798;51.528;7.240;2023-04-06T01:45:29;2.70;99.90
23259;DHT22;11798;51.528;7.240;2023-04-06T01:47:54;2.70;99.90
23259;DHT22;11798;51.528;7.240;2023-04-06T01:50:20;2.80;99.90
23259;DHT22;11798;51.528;7.240;2023-04-06T01:52:46;2.80;99.90
23259;DHT22;11798;51.528;7.240;2023-04-06T01:55:11;2.80;99.90
23259;DHT22;11798;51.528;7.240;2023-04-06T01:57:37;2.70;99.90
23259;DHT22;11798;51.528;7.240;2023-04-06T02:00:03;2.70;99.90
23259;DHT22;11798;51.528;7.240;2023-04-06T02:02:29;2.80;99.90
23259;DHT22;11798;51.528;7.240;2023-04-06T02:04:54;2.80;99.90
23259;DHT22;11798;51.528;7.240;2023-04-06T02:07:21;2.80;99.90
23259;DHT22;11798;51.528;7.240;2023-04-06T02:09:46;2.80;99.90
23259;DHT22;11798;51.528;7.240;2023-04-06T02:12:12;2.80;99.90
23259;DHT22;11798;51.528;7.240;2023-04-06T02:14:38;2.80;99.90
23259;DHT22;11798;51.528;7.240;2023-04-06T02:17:03;2.80;99.90
23259;DHT22;11798;51.528;7.240;2023-04-06T02:19:29;2.80;99.90
23259;DHT22;11798;51.528;7.240;2023-04-06T02:21:54;2.90;99.90
23259;DHT22;11798;51.528;7.240;2023-04-06T02:24:20;2.90;99.90
23259;DHT22;11798;51.528;7.240;2023-04-06T02:26:46;2.80;99.90
23259;DHT22;11798;51.528;7.240;2023-04-06T02:29:12;2.80;99.90
23259;DHT22;11798;51.528;7.240;2023-04-06T02:31:37;2.80;99.90
23259;DHT22;11798;51.528;7.240;2023-04-06T02:34:03;2.80;99.90
23259;DHT22;11798;51.528;7.240;2023-04-06T02:36:28;2.70;99.90
23259;DHT22;11798;51.528;7.240;2023-04-06T02:38:55;2.70;99.90
23259;DHT22;11798;51.528;7.240;2023-04-06T02:41:20;2.70;99.90
23259;DHT22;11798;51.528;7.240;2023-04-06T02:43:46;2.70;99.90
23259;DHT22;11798;51.528;7.240;2023-04-06T02:46:12;2.70;99.90
23259;DHT22;11798;51.528;7.240;2023-04-06T02:48:37;2.60;99.90
23259;DHT22;11798;51.528;7.240;2023-04-06T02:51:03;2.50;99.90
23259;DHT22;11798;51.528;7.240;2023-04-06T02:53:29;2.50;99.90
23259;DHT22;11798;51.528;7.240;2023-04-06T02:55:55;2.50;99.90
23259;DHT22;11798;51.528;7.240;2023-04-06T02:58:21;2.50;99.90
23259;DHT22;11798;51.528;7.240;2023-04-06T03:00:46;2.40;99.90
23259;DHT22;11798;51.528;7.240;2023-04-06T03:03:12;2.40;99.90
23259;DHT22;11798;51.528;7.240;2023-04-06T03:05:38;2.30;99.90
23259;DHT22;11798;51.528;7.240;2023-04-06T03:08:03;2.30;99.90
23259;DHT22;11798;51.528;7.240;2023-04-06T03:10:29;2.30;99.90
23259;DHT22;11798;51.528;7.240;2023-04-06T03:12:55;2.20;99.90
23259;DHT22;11798;51.528;7.240;2023-04-06T03:15:20;2.20;99.90
23259;DHT22;11798;51.528;7.240;2023-04-06T03:17:46;2.30;99.90
23259;DHT22;11798;51.528;7.240;2023-04-06T03:20:12;2.30;99.90
23259;DHT22;11798;51.528;7.240;2023-04-06T03:22:37;2.20;99.90
23259;DHT22;11798;51.528;7.240;2023-04-06T03:25:03;2.20;99.90
23259;DHT22;11798;51.528;7.240;2023-04-06T03:27:29;2.20;99.90
23259;DHT22;11798;51.528;7.240;2023-04-06T03:29:55;2.10;99.90
23259;DHT22;11798;51.528;7.240;2023-04-06T03:32:20;2.10;99.90
23259;DHT22;11798;51.528;7.240;2023-04-06T03:34:46;2.10;99.90
23259;DHT22;11798;51.528;7.240;2023-04-06T03:37:11;2.10;99.90
23259;DHT22;11798;51.528;7.240;2023-04-06T03:39:37;2.00;99.90
23259;DHT22;11798;51.528;7.240;2023-04-06T03:42:03;1.90;99.90
23259;DHT22;11798;51.528;7.240;2023-04-06T03:44:28;1.90;99.90
23259;DHT22;11798;51.528;7.240;2023-04-06T03:46:54;1.90;99.90
23259;DHT22;11798;51.528;7.240;2023-04-06T03:49:20;1.90;99.90
23259;DHT22;11798;51.528;7.240;2023-04-06T03:51:45;1.90;99.90
23259;DHT22;11798;51.528;7.240;2023-04-06T03:54:11;1.90;99.90
23259;DHT22;11798;51.528;7.240;2023-04-06T03:56:37;1.80;99.90
23259;DHT22;11798;51.528;7.240;2023-04-06T03:59:02;1.80;99.90
23259;DHT22;11798;51.528;7.240;2023-04-06T04:01:28;1.70;99.90
23259;DHT22;11798;51.528;7.240;2023-04-06T04:03:53;1.70;99.90
23259;DHT22;11798;51.528;7.240;2023-04-06T04:06:19;1.70;99.90
23259;DHT22;11798;51.528;7.240;2023-04-06T04:08:45;1.70;99.90
23259;DHT22;11798;51.528;7.240;2023-04-06T04:11:10;1.70;99.90
23259;DHT22;11798;51.528;7.240;2023-04-06T04:13:36;1.80;99.90
23259;DHT22;11798;51.528;7.240;2023-04-06T04:16:02;1.80;99.90
23259;DHT22;11798;51.528;7.240;2023-04-06T04:18:27;1.80;99.90
23259;DHT22;11798;51.528;7.240;2023-04-06T04:20:53;1.80;99.90
23259;DHT22;11798;51.528;7.240;2023-04-06T04:23:18;1.80;99.90
23259;DHT22;11798;51.528;7.240;2023-04-06T04:25:44;1.80;99.90
23259;DHT22;11798;51.528;7.240;2023-04-06T04:28:10;1.80;99.90
23259;DHT22;11798;51.528;7.240;2023-04-06T04:30:36;1.90;99.90
23259;DHT22;11798;51.528;7.240;2023-04-06T04:33:01;2.00;99.90
23259;DHT22;11798;51.528;7.240;2023-04-06T04:35:27;2.00;99.90
23259;DHT22;11798;51.528;7.240;2023-04-06T04:37:53;2.00;99.90
23259;DHT22;11798;51.528;7.240;2023-04-06T04:40:18;2.00;99.90
23259;DHT22;11798;51.528;7.240;2023-04-06T04:42:44;2.00;99.90
23259;DHT22;11798;51.528;7.240;2023-04-06T04:45:10;2.00;99.90
23259;DHT22;11798;51.528;7.240;2023-04-06T04:47:36;2.00;99.90
23259;DHT22;11798;51.528;7.240;2023-04-06T04:50:02;2.10;99.90
23259;DHT22;11798;51.528;7.240;2023-04-06T04:52:28;2.10;99.90
23259;DHT22;11798;51.528;7.240;2023-04-06T04:54:53;2.10;99.90
23259;DHT22;11798;51.528;7.240;2023-04-06T04:57:19;2.10;99.90
23259;DHT22;11798;51.528;7.240;2023-04-06T04:59:45;2.10;99.90
23259;DHT22;11798;51.528;7.240;2023-04-06T05:02:10;2.10;99.90
23259;DHT22;11798;51.528;7.240;2023-04-06T05:04:36;2.10;99.90
23259;DHT22;11798;51.528;7.240;2023-04-06T05:07:09;2.00;99.90
23259;DHT22;11798;51.528;7.240;2023-04-06T05:09:35;2.30;99.90
23259;DHT22;11798;51.528;7.240;2023-04-06T05:12:01;2.20;99.90
23259;DHT22;11798;51.528;7.240;2023-04-06T05:14:27;2.30;99.90
23259;DHT22;11798;51.528;7.240;2023-04-06T05:16:53;2.40;99.90
23259;DHT22;11798;51.528;7.240;2023-04-06T05:19:19;2.50;99.90
23259;DHT22;11798;51.528;7.240;2023-04-06T05:21:45;2.50;99.90
23259;DHT22;11798;51.528;7.240;2023-04-06T05:24:11;2.60;99.90
23259;DHT22;11798;51.528;7.240;2023-04-06T05:26:37;2.60;99.90
23259;DHT22;11798;51.528;7.240;2023-04-06T05:29:02;2.70;99.90
23259;DHT22;11798;51.528;7.240;2023-04-06T05:31:29;2.70;99.90
23259;DHT22;11798;51.528;7.240;2023-04-06T05:33:55;2.80;99.90
23259;DHT22;11798;51.528;7.240;2023-04-06T05:36:20;2.80;99.90
23259;DHT22;11798;51.528;7.240;2023-04-06T05:38:46;2.90;99.90
23259;DHT22;11798;51.528;7.240;2023-04-06T05:41:12;2.90;99.90
23259;DHT22;11798;51.528;7.240;2023-04-06T05:43:37;2.90;99.90
23259;DHT22;11798;51.528;7.240;2023-04-06T05:46:03;2.90;99.90
23259;DHT22;11798;51.528;7.240;2023-04-06T05:48:29;3.00;99.90
23259;DHT22;11798;51.528;7.240;2023-04-06T05:50:55;3.10;99.90
23259;DHT22;11798;51.528;7.240;2023-04-06T05:53:20;3.20;99.90
23259;DHT22;11798;51.528;7.240;2023-04-06T05:55:47;3.20;99.90
23259;DHT22;11798;51.528;7.240;2023-04-06T05:58:12;3.30;99.90
23259;DHT22;11798;51.528;7.240;2023-04-06T06:00:38;3.30;99.90
23259;DHT22;11798;51.528;7.240;2023-04-06T06:03:04;3.40;99.90
23259;DHT22;11798;51.528;7.240;2023-04-06T06:05:31;3.40;99.90
23259;DHT22;11798;51.528;7.240;2023-04-06T06:07:57;3.50;99.90
23259;DHT22;11798;51.528;7.240;2023-04-06T06:10:22;3.50;99.90
23259;DHT22;11798;51.528;7.240;2023-04-06T06:12:48;3.60;99.90
23259;DHT22;11798;51.528;7.240;2023-04-06T06:15:14;3.70;99.90
23259;DHT22;11798;51.528;7.240;2023-04-06T06:17:39;3.70;99.90
23259;DHT22;11798;51.528;7.240;2023-04-06T06:20:06;3.80;99.90
23259;DHT22;11798;51.528;7.240;2023-04-06T06:22:32;3.90;99.90
23259;DHT22;11798;51.528;7.240;2023-04-06T06:24:58;4.00;99.90
23259;DHT22;11798;51.528;7.240;2023-04-06T06:27:24;4.10;99.90
23259;DHT22;11798;51.528;7.240;2023-04-06T06:29:49;4.20;99.90
23259;DHT22;11798;51.528;7.240;2023-04-06T06:32:15;4.30;99.90
23259;DHT22;11798;51.528;7.240;2023-04-06T06:34:41;4.40;99.90
23259;DHT22;11798;51.528;7.240;2023-04-06T06:37:06;4.40;99.90
23259;DHT22;11798;51.528;7.240;2023-04-06T06:39:32;4.50;99.90
23259;DHT22;11798;51.528;7.240;2023-04-06T06:41:57;4.60;99.90
23259;DHT22;11798;51.528;7.240;2023-04-06T06:44:26;4.70;99.90
23259;DHT22;11798;51.528;7.240;2023-04-06T06:46:51;4.80;99.90
23259;DHT22;11798;51.528;7.240;2023-04-06T06:49:17;4.90;99.90
23259;DHT22;11798;51.528;7.240;2023-04-06T06:51:44;4.90;99.90
23259;DHT22;11798;51.528;7.240;2023-04-06T06:54:10;5.00;99.90
23259;DHT22;11798;51.528;7.240;2023-04-06T06:56:35;5.10;99.90
23259;DHT22;11798;51.528;7.240;2023-04-06T06:59:04;5.20;99.90
23259;DHT22;11798;51.528;7.240;2023-04-06T07:01:32;5.30;99.90
23259;DHT22;11798;51.528;7.240;2023-04-06T07:03:57;5.40;99.90
23259;DHT22;11798;51.528;7.240;2023-04-06T07:06:23;5.50;99.90
23259;DHT22;11798;51.528;7.240;2023-04-06T07:08:49;5.50;99.90
23259;DHT22;11798;51.528;7.240;2023-04-06T07:11:14;5.60;99.90
23259;DHT22;11798;51.528;7.240;2023-04-06T07:13:40;5.70;99.90
23259;DHT22;11798;51.528;7.240;2023-04-06T07:16:06;5.80;99.90
23259;DHT22;11798;51.528;7.240;2023-04-06T07:18:31;5.90;99.90
23259;DHT22;11798;51.528;7.240;2023-04-06T07:20:57;6.00;99.90
23259;DHT22;11798;51.528;7.240;2023-04-06T07:23:22;6.10;99.90
23259;DHT22;11798;51.528;7.240;2023-04-06T07:25:48;6.20;99.90
23259;DHT22;11798;51.528;7.240;2023-04-06T07:28:16;6.30;99.90
23259;DHT22;11798;51.528;7.240;2023-04-06T07:30:42;6.40;99.90
23259;DHT22;11798;51.528;7.240;2023-04-06T07:33:07;6.50;99.90
23259;DHT22;11798;51.528;7.240;2023-04-06T07:35:33;6.60;99.90
23259;DHT22;11798;51.528;7.240;2023-04-06T07:38:00;6.70;99.90
23259;DHT22;11798;51.528;7.240;2023-04-06T07:40:25;6.80;99.90
23259;DHT22;11798;51.528;7.240;2023-04-06T07:42:52;6.80;99.90
23259;DHT22;11798;51.528;7.240;2023-04-06T07:45:18;6.90;99.90
23259;DHT22;11798;51.528;7.240;2023-04-06T07:47:44;7.00;99.90
23259;DHT22;11798;51.528;7.240;2023-04-06T07:50:10;7.10;99.90
23259;DHT22;11798;51.528;7.240;2023-04-06T07:52:35;7.20;99.90
23259;DHT22;11798;51.528;7.240;2023-04-06T07:55:01;7.30;99.90
23259;DHT22;11798;51.528;7.240;2023-04-06T07:57:27;7.40;99.90
23259;DHT22;11798;51.528;7.240;2023-04-06T07:59:52;7.50;99.90
23259;DHT22;11798;51.528;7.240;2023-04-06T08:02:18;7.50;99.90
23259;DHT22;11798;51.528;7.240;2023-04-06T08:04:44;7.60;99.90
23259;DHT22;11798;51.528;7.240;2023-04-06T08:07:13;7.70;99.90
23259;DHT22;11798;51.528;7.240;2023-04-06T08:09:38;7.80;99.90
23259;DHT22;11798;51.528;7.240;2023-04-06T08:12:04;7.90;99.90
23259;DHT22;11798;51.528;7.240;2023-04-06T08:14:30;8.00;99.90
23259;DHT22;11798;51.528;7.240;2023-04-06T08:16:56;8.10;99.90
23259;DHT22;11798;51.528;7.240;2023-04-06T08:19:22;8.20;99.90
23259;DHT22;11798;51.528;7.240;2023-04-06T08:21:47;8.30;99.90
23259;DHT22;11798;51.528;7.240;2023-04-06T08:24:14;8.40;99.90
23259;DHT22;11798;51.528;7.240;2023-04-06T08:26:39;8.50;99.90
23259;DHT22;11798;51.528;7.240;2023-04-06T08:29:05;8.70;99.90
23259;DHT22;11798;51.528;7.240;2023-04-06T08:31:33;8.80;99.90
23259;DHT22;11798;51.528;7.240;2023-04-06T08:33:59;9.00;99.90
23259;DHT22;11798;51.528;7.240;2023-04-06T08:36:25;9.10;99.90
23259;DHT22;11798;51.528;7.240;2023-04-06T08:38:51;9.30;99.90
23259;DHT22;11798;51.528;7.240;2023-04-06T08:41:18;9.40;99.90
23259;DHT22;11798;51.528;7.240;2023-04-06T08:43:56;9.50;99.90
23259;DHT22;11798;51.528;7.240;2023-04-06T08:46:23;9.80;99.90
23259;DHT22;11798;51.528;7.240;2023-04-06T08:48:57;9.80;99.90
23259;DHT22;11798;51.528;7.240;2023-04-06T08:51:24;10.00;99.90
23259;DHT22;11798;51.528;7.240;2023-04-06T08:53:54;10.20;99.90
23259;DHT22;11798;51.528;7.240;2023-04-06T08:56:26;10.40;99.90
23259;DHT22;11798;51.528;7.240;2023-04-06T08:58:53;10.50;99.90
23259;DHT22;11798;51.528;7.240;2023-04-06T09:01:25;10.60;99.90
23259;DHT22;11798;51.528;7.240;2023-04-06T09:03:51;10.70;99.90
23259;DHT22;11798;51.528;7.240;2023-04-06T09:06:19;10.80;99.90
23259;DHT22;11798;51.528;7.240;2023-04-06T09:08:44;10.90;99.90
23259;DHT22;11798;51.528;7.240;2023-04-06T09:11:10;11.00;99.90
23259;DHT22;11798;51.528;7.240;2023-04-06T09:13:56;11.00;99.90
23259;DHT22;11798;51.528;7.240;2023-04-06T09:16:23;11.00;99.90
23259;DHT22;11798;51.528;7.240;2023-04-06T09:18:49;11.20;99.90
23259;DHT22;11798;51.528;7.240;2023-04-06T09:21:18;11.30;99.90
23259;DHT22;11798;51.528;7.240;2023-04-06T09:23:44;11.40;99.90
23259;DHT22;11798;51.528;7.240;2023-04-06T09:26:15;11.50;99.90
23259;DHT22;11798;51.528;7.240;2023-04-06T09:28:45;11.60;99.90
23259;DHT22;11798;51.528;7.240;2023-04-06T09:31:13;11.60;99.90
23259;DHT22;11798;51.528;7.240;2023-04-06T09:33:43;11.60;99.90
23259;DHT22;11798;51.528;7.240;2023-04-06T09:36:09;11.70;99.90
23259;DHT22;11798;51.528;7.240;2023-04-06T09:39:01;11.80;99.90
23259;DHT22;11798;51.528;7.240;2023-04-06T09:41:27;11.80;99.90
23259;DHT22;11798;51.528;7.240;2023-04-06T09:44:06;11.80;99.90
23259;DHT22;11798;51.528;7.240;2023-04-06T09:46:35;11.90;99.90
23259;DHT22;11798;51.528;7.240;2023-04-06T09:49:05;11.80;99.90
23259;DHT22;11798;51.528;7.240;2023-04-06T09:51:55;11.70;99.90
23259;DHT22;11798;51.528;7.240;2023-04-06T09:54:21;11.70;99.90
23259;DHT22;11798;51.528;7.240;2023-04-06T10:07:54;12.00;99.90
23259;DHT22;11798;51.528;7.240;2023-04-06T10:10:21;12.00;99.90
23259;DHT22;11798;51.528;7.240;2023-04-06T10:12:48;12.20;99.90
23259;DHT22;11798;51.528;7.240;2023-04-06T10:15:15;12.20;99.90
23259;DHT22;11798;51.528;7.240;2023-04-06T10:17:41;12.20;99.90
23259;DHT22;11798;51.528;7.240;2023-04-06T10:20:23;12.30;99.90
23259;DHT22;11798;51.528;7.240;2023-04-06T10:23:13;12.30;99.90
23259;DHT22;11798;51.528;7.240;2023-04-06T10:28:19;12.40;99.90
23259;DHT22;11798;51.528;7.240;2023-04-06T10:30:45;12.70;99.90
23259;DHT22;11798;51.528;7.240;2023-04-06T10:35:40;13.10;99.90
23259;DHT22;11798;51.528;7.240;2023-04-06T10:38:05;13.20;99.90
23259;DHT22;11798;51.528;7.240;2023-04-06T10:40:31;13.10;99.90
23259;DHT22;11798;51.528;7.240;2023-04-06T10:43:11;13.10;99.90
23259;DHT22;11798;51.528;7.240;2023-04-06T10:45:37;13.00;99.90
23259;DHT22;11798;51.528;7.240;2023-04-06T10:48:14;13.10;99.90
23259;DHT22;11798;51.528;7.240;2023-04-06T10:50:41;13.10;99.90
23259;DHT22;11798;51.528;7.240;2023-04-06T10:53:07;13.30;99.90
23259;DHT22;11798;51.528;7.240;2023-04-06T10:55:34;13.30;99.90
23259;DHT22;11798;51.528;7.240;2023-04-06T10:58:00;13.40;99.90
23259;DHT22;11798;51.528;7.240;2023-04-06T11:00:26;13.50;99.90
23259;DHT22;11798;51.528;7.240;2023-04-06T11:02:58;13.50;99.90
23259;DHT22;11798;51.528;7.240;2023-04-06T11:05:24;13.50;99.90
23259;DHT22;11798;51.528;7.240;2023-04-06T11:07:49;13.40;99.90
23259;DHT22;11798;51.528;7.240;2023-04-06T11:10:21;13.50;99.90
23259;DHT22;11798;51.528;7.240;2023-04-06T11:12:56;13.60;99.90
23259;DHT22;11798;51.528;7.240;2023-04-06T11:15:21;13.80;99.90
23259;DHT22;11798;51.528;7.240;2023-04-06T11:17:47;13.90;99.90
23259;DHT22;11798;51.528;7.240;2023-04-06T11:20:15;13.80;99.90
23259;DHT22;11798;51.528;7.240;2023-04-06T11:22:51;13.70;99.90
23259;DHT22;11798;51.528;7.240;2023-04-06T11:25:17;13.90;99.90
23259;DHT22;11798;51.528;7.240;2023-04-06T11:27:44;13.90;99.90
23259;DHT22;11798;51.528;7.240;2023-04-06T11:30:11;14.00;99.90
23259;DHT22;11798;51.528;7.240;2023-04-06T11:32:44;14.20;99.90
23259;DHT22;11798;51.528;7.240;2023-04-06T11:35:21;14.40;99.90
23259;DHT22;11798;51.528;7.240;2023-04-06T11:37:51;14.10;99.90
23259;DHT22;11798;51.528;7.240;2023-04-06T11:40:23;14.10;99.90
23259;DHT22;11798;51.528;7.240;2023-04-06T11:42:54;14.10;99.90
23259;DHT22;11798;51.528;7.240;2023-04-06T11:45:20;14.10;99.90
23259;DHT22;11798;51.528;7.240;2023-04-06T11:47:56;14.30;99.90
23259;DHT22;11798;51.528;7.240;2023-04-06T11:50:22;14.30;99.90
23259;DHT22;11798;51.528;7.240;2023-04-06T11:52:58;14.10;99.90
23259;DHT22;11798;51.528;7.240;2023-04-06T11:55:25;14.20;99.90
23259;DHT22;11798;51.528;7.240;2023-04-06T11:57:51;14.40;99.90
23259;DHT22;11798;51.528;7.240;2023-04-06T12:00:17;14.50;99.90
23259;DHT22;11798;51.528;7.240;2023-04-06T12:02:46;14.60;99.90
23259;DHT22;11798;51.528;7.240;2023-04-06T12:05:12;14.40;99.90
23259;DHT22;11798;51.528;7.240;2023-04-06T12:07:38;14.30;99.90
23259;DHT22;11798;51.528;7.240;2023-04-06T12:10:04;14.20;99.90
23259;DHT22;11798;51.528;7.240;2023-04-06T12:12:30;14.40;99.90
23259;DHT22;11798;51.528;7.240;2023-04-06T12:14:57;14.30;99.90
23259;DHT22;11798;51.528;7.240;2023-04-06T12:17:22;14.20;99.90
23259;DHT22;11798;51.528;7.240;2023-04-06T12:19:48;14.30;99.90
23259;DHT22;11798;51.528;7.240;2023-04-06T12:22:14;14.40;99.90
23259;DHT22;11798;51.528;7.240;2023-04-06T12:24:40;14.30;99.90
23259;DHT22;11798;51.528;7.240;2023-04-06T12:27:06;14.20;99.90
23259;DHT22;11798;51.528;7.240;2023-04-06T12:29:32;14.20;99.90
23259;DHT22;11798;51.528;7.240;2023-04-06T12:31:57;14.40;99.90
23259;DHT22;11798;51.528;7.240;2023-04-06T12:34:23;14.20;99.90
23259;DHT22;11798;51.528;7.240;2023-04-06T12:36:49;14.20;99.90
23259;DHT22;11798;51.528;7.240;2023-04-06T12:39:16;14.30;99.90
23259;DHT22;11798;51.528;7.240;2023-04-06T12:41:42;14.50;99.90
23259;DHT22;11798;51.528;7.240;2023-04-06T12:44:07;14.40;99.90
23259;DHT22;11798;51.528;7.240;2023-04-06T12:46:33;14.40;99.90
23259;DHT22;11798;51.528;7.240;2023-04-06T12:48:59;14.40;99.90
23259;DHT22;11798;51.528;7.240;2023-04-06T12:51:28;14.40;99.90
23259;DHT22;11798;51.528;7.240;2023-04-06T12:53:54;14.50;99.90
23259;DHT22;11798;51.528;7.240;2023-04-06T12:56:20;14.50;99.90
23259;DHT22;11798;51.528;7.240;2023-04-06T12:58:51;14.40;99.90
23259;DHT22;11798;51.528;7.240;2023-04-06T13:01:17;14.30;99.90
23259;DHT22;11798;51.528;7.240;2023-04-06T13:03:43;14.30;99.90
23259;DHT22;11798;51.528;7.240;2023-04-06T13:06:10;14.30;99.90
23259;DHT22;11798;51.528;7.240;2023-04-06T13:08:37;14.40;99.90
23259;DHT22;11798;51.528;7.240;2023-04-06T13:11:04;14.10;99.90
23259;DHT22;11798;51.528;7.240;2023-04-06T13:13:30;13.90;99.90
23259;DHT22;11798;51.528;7.240;2023-04-06T13:16:01;13.70;99.90
23259;DHT22;11798;51.528;7.240;2023-04-06T13:18:28;13.90;99.90
23259;DHT22;11798;51.528;7.240;2023-04-06T13:20:55;13.80;99.90
23259;DHT22;11798;51.528;7.240;2023-04-06T13:23:22;13.80;99.90
23259;DHT22;11798;51.528;7.240;2023-04-06T13:25:47;13.80;99.90
23259;DHT22;11798;51.528;7.240;2023-04-06T13:28:13;13.60;99.90
23259;DHT22;11798;51.528;7.240;2023-04-06T13:30:39;13.60;99.90
23259;DHT22;11798;51.528;7.240;2023-04-06T13:33:05;13.50;99.90
23259;DHT22;11798;51.528;7.240;2023-04-06T13:35:34;13.50;99.90
23259;DHT22;11798;51.528;7.240;2023-04-06T13:38:01;13.40;99.90
23259;DHT22;11798;51.528;7.240;2023-04-06T13:40:26;13.50;99.90
23259;DHT22;11798;51.528;7.240;2023-04-06T13:42:52;13.20;99.90
23259;DHT22;11798;51.528;7.240;2023-04-06T13:45:17;13.30;99.90
23259;DHT22;11798;51.528;7.240;2023-04-06T13:47:43;13.40;99.90
23259;DHT22;11798;51.528;7.240;2023-04-06T13:50:09;13.40;99.90
23259;DHT22;11798;51.528;7.240;2023-04-06T13:52:35;13.10;99.90
23259;DHT22;11798;51.528;7.240;2023-04-06T13:55:01;13.10;99.90
23259;DHT22;11798;51.528;7.240;2023-04-06T13:57:27;13.20;99.90
23259;DHT22;11798;51.528;7.240;2023-04-06T13:59:55;13.20;99.90
23259;DHT22;11798;51.528;7.240;2023-04-06T14:02:20;13.10;99.90
23259;DHT22;11798;51.528;7.240;2023-04-06T14:04:52;13.10;99.90
23259;DHT22;11798;51.528;7.240;2023-04-06T14:07:17;13.00;99.90
23259;DHT22;11798;51.528;7.240;2023-04-06T14:09:43;12.90;99.90
23259;DHT22;11798;51.528;7.240;2023-04-06T14:12:08;12.90;99.90
23259;DHT22;11798;51.528;7.240;2023-04-06T14:14:34;13.00;99.90
23259;DHT22;11798;51.528;7.240;2023-04-06T14:17:00;13.10;99.90
23259;DHT22;11798;51.528;7.240;2023-04-06T14:19:25;13.00;99.90
23259;DHT22;11798;51.528;7.240;2023-04-06T14:21:51;13.00;99.90
23259;DHT22;11798;51.528;7.240;2023-04-06T14:24:17;13.00;99.90
23259;DHT22;11798;51.528;7.240;2023-04-06T14:26:43;12.90;99.90
23259;DHT22;11798;51.528;7.240;2023-04-06T14:29:10;12.80;99.90
23259;DHT22;11798;51.528;7.240;2023-04-06T14:31:36;12.90;99.90
23259;DHT22;11798;51.528;7.240;2023-04-06T14:34:03;12.90;99.90
23259;DHT22;11798;51.528;7.240;2023-04-06T14:36:32;13.00;99.90
23259;DHT22;11798;51.528;7.240;2023-04-06T14:39:05;12.80;99.90
23259;DHT22;11798;51.528;7.240;2023-04-06T14:41:31;12.80;99.90
23259;DHT22;11798;51.528;7.240;2023-04-06T14:43:57;12.80;99.90
23259;DHT22;11798;51.528;7.240;2023-04-06T14:46:23;12.60;99.90
23259;DHT22;11798;51.528;7.240;2023-04-06T14:48:49;12.50;99.90
23259;DHT22;11798;51.528;7.240;2023-04-06T14:51:16;12.50;99.90
23259;DHT22;11798;51.528;7.240;2023-04-06T14:53:42;12.50;99.90
23259;DHT22;11798;51.528;7.240;2023-04-06T14:56:07;12.40;99.90
23259;DHT22;11798;51.528;7.240;2023-04-06T14:58:33;12.40;99.90
23259;DHT22;11798;51.528;7.240;2023-04-06T15:01:00;12.30;99.90
23259;DHT22;11798;51.528;7.240;2023-04-06T15:03:29;12.40;99.90
23259;DHT22;11798;51.528;7.240;2023-04-06T15:05:56;12.30;99.90
23259;DHT22;11798;51.528;7.240;2023-04-06T15:08:23;12.20;99.90
23259;DHT22;11798;51.528;7.240;2023-04-06T15:10:50;12.00;99.90
23259;DHT22;11798;51.528;7.240;2023-04-06T15:13:15;12.10;99.90
23259;DHT22;11798;51.528;7.240;2023-04-06T15:15:42;12.10;99.90
23259;DHT22;11798;51.528;7.240;2023-04-06T15:18:08;12.00;99.90
23259;DHT22;11798;51.528;7.240;2023-04-06T15:20:34;12.00;99.90
23259;DHT22;11798;51.528;7.240;2023-04-06T15:23:01;12.00;99.90
23259;DHT22;11798;51.528;7.240;2023-04-06T15:25:27;11.90;99.90
23259;DHT22;11798;51.528;7.240;2023-04-06T15:27:56;11.70;99.90
23259;DHT22;11798;51.528;7.240;2023-04-06T15:30:22;11.70;99.90
23259;DHT22;11798;51.528;7.240;2023-04-06T15:33:07;11.60;99.90
23259;DHT22;11798;51.528;7.240;2023-04-06T15:35:34;11.50;99.90
23259;DHT22;11798;51.528;7.240;2023-04-06T15:38:05;11.50;99.90
23259;DHT22;11798;51.528;7.240;2023-04-06T15:40:30;11.60;99.90
23259;DHT22;11798;51.528;7.240;2023-04-06T15:42:56;11.60;99.90
23259;DHT22;11798;51.528;7.240;2023-04-06T15:45:22;11.70;99.90
23259;DHT22;11798;51.528;7.240;2023-04-06T15:47:47;11.60;99.90
23259;DHT22;11798;51.528;7.240;2023-04-06T15:50:13;11.40;99.90
23259;DHT22;11798;51.528;7.240;2023-04-06T15:52:39;11.30;99.90